sensor_id;sensor_type;location;lat;lon;timestamp;pressure;altitude;pressure_sealevel;temperature;humidity
57763;BME280;43592;42.524;12.052;2023-05-02T00:02:09;96071.78;;;10.95;100.00
57763;BME280;43592;42.524;12.052;2023-05-02T00:04:35;96065.25;;;10.92;100.00
57763;BME280;43592;42.524;12.052;2023-05-02T00:07:01;96067.91;;;10.92;100.00
57763;BME280;43592;42.524;12.052;2023-05-02T00:09:27;96067.56;;;10.94;100.00
57763;BME280;43592;42.524;12.052;2023-05-02T00:11:53;96063.75;;;10.95;100.00
57763;BME280;43592;42.524;12.052;2023-05-02T00:14:19;96060.75;;;10.96;100.00
57763;BME280;43592;42.524;12.052;2023-05-02T00:16:44;96055.38;;;10.96;100.00
57763;BME280;43592;42.524;12.052;2023-05-02T00:19:10;96052.78;;;11.00;100.00
57763;BME280;43592;42.524;12.052;2023-05-02T00:21:36;96042.81;;;11.00;100.00
57763;BME280;43592;42.524;12.052;2023-05-02T00:24:01;96039.44;;;11.04;100.00
57763;BME280;43592;42.524;12.052;2023-05-02T00:26:27;96043.31;;;11.06;100.00
57763;BME280;43592;42.524;12.052;2023-05-02T00:28:53;96039.16;;;11.09;100.00
57763;BME280;43592;42.524;12.052;2023-05-02T00:31:18;96039.19;;;11.12;100.00
57763;BME280;43592;42.524;12.052;2023-05-02T00:33:44;96044.97;;;11.14;100.00
57763;BME280;43592;42.524;12.052;2023-05-02T00:36:13;96039.63;;;11.14;100.00
57763;BME280;43592;42.524;12.052;2023-05-02T00:38:39;96038.50;;;11.15;100.00
57763;BME280;43592;42.524;12.052;2023-05-02T00:41:04;96033.16;;;11.15;100.00
57763;BME280;43592;42.524;12.052;2023-05-02T00:43:30;96016.72;;;11.17;100.00
57763;BME280;43592;42.524;12.052;2023-05-02T00:45:56;96023.63;;;11.18;100.00
57763;BME280;43592;42.524;12.052;2023-05-02T00:48:21;96021.34;;;11.20;100.00
57763;BME280;43592;42.524;12.052;2023-05-02T00:50:47;96016.00;;;11.20;100.00
57763;BME280;43592;42.524;12.052;2023-05-02T00:53:12;96019.88;;;11.22;100.00
57763;BME280;43592;42.524;12.052;2023-05-02T00:55:39;96009.94;;;11.23;100.00
57763;BME280;43592;42.524;12.052;2023-05-02T00:58:05;96011.50;;;11.24;100.00
57763;BME280;43592;42.524;12.052;2023-05-02T01:00:35;96006.91;;;11.24;100.00
57763;BME280;43592;42.524;12.052;2023-05-02T01:03:09;96008.81;;;11.24;100.00
57763;BME280;43592;42.524;12.052;2023-05-02T01:05:44;96013.38;;;11.23;100.00
57763;BME280;43592;42.524;12.052;2023-05-02T01:08:19;96008.00;;;11.23;100.00
57763;BME280;43592;42.524;12.052;2023-05-02T01:10:59;96014.16;;;11.24;100.00
57763;BME280;43592;42.524;12.052;2023-05-02T01:13:28;96007.69;;;11.25;100.00
57763;BME280;43592;42.524;12.052;2023-05-02T01:15:55;96009.22;;;11.26;100.00
57763;BME280;43592;42.524;12.052;2023-05-02T01:18:23;96003.84;;;11.26;100.00
57763;BME280;43592;42.524;12.052;2023-05-02T01:20:52;95999.28;;;11.27;100.00
57763;BME280;43592;42.524;12.052;2023-05-02T01:23:24;96010.78;;;11.27;100.00
57763;BME280;43592;42.524;12.052;2023-05-02T01:25:59;96000.81;;;11.28;100.00
57763;BME280;43592;42.524;12.052;2023-05-02T01:29:10;95998.91;;;11.28;100.00
57763;BME280;43592;42.524;12.052;2023-05-02T01:31:17;96001.59;;;11.28;100.00
57763;BME280;43592;42.524;12.052;2023-05-02T01:33:43;95998.56;;;11.30;100.00
57763;BME280;43592;42.524;12.052;2023-05-02T01:36:10;95999.34;;;11.30;100.00
57763;BME280;43592;42.524;12.052;2023-05-02T01:38:37;96006.22;;;11.31;100.00
57763;BME280;43592;42.524;12.052;2023-05-02T01:41:03;95995.53;;;11.31;100.00
57763;BME280;43592;42.524;12.052;2023-05-02T01:43:34;95990.94;;;11.32;100.00
57763;BME280;43592;42.524;12.052;2023-05-02T01:46:01;95989.41;;;11.31;100.00
57763;BME280;43592;42.524;12.052;2023-05-02T01:48:28;95994.38;;;11.32;100.00
57763;BME280;43592;42.524;12.052;2023-05-02T01:50:55;95993.97;;;11.30;100.00
57763;BME280;43592;42.524;12.052;2023-05-02T01:53:22;95996.66;;;11.30;100.00
57763;BME280;43592;42.524;12.052;2023-05-02T01:55:49;95997.78;;;11.29;100.00
57763;BME280;43592;42.524;12.052;2023-05-02T01:58:15;95994.69;;;11.27;100.00
57763;BME280;43592;42.524;12.052;2023-05-02T02:00:41;95989.34;;;11.27;100.00
57763;BME280;43592;42.524;12.052;2023-05-02T02:03:09;95985.09;;;11.26;100.00
57763;BME280;43592;42.524;12.052;2023-05-02T02:05:35;95978.22;;;11.25;100.00
57763;BME280;43592;42.524;12.052;2023-05-02T02:08:02;95987.38;;;11.24;100.00
57763;BME280;43592;42.524;12.052;2023-05-02T02:10:28;95993.50;;;11.24;100.00
57763;BME280;43592;42.524;12.052;2023-05-02T02:13:00;95985.47;;;11.24;100.00
57763;BME280;43592;42.524;12.052;2023-05-02T02:15:29;95987.38;;;11.24;100.00
57763;BME280;43592;42.524;12.052;2023-05-02T02:17:57;95982.03;;;11.24;100.00
57763;BME280;43592;42.524;12.052;2023-05-02T02:20:24;95982.81;;;11.24;100.00
57763;BME280;43592;42.524;12.052;2023-05-02T02:22:51;95985.47;;;11.24;100.00
57763;BME280;43592;42.524;12.052;2023-05-02T02:25:17;95978.22;;;11.25;100.00
57763;BME280;43592;42.524;12.052;2023-05-02T02:27:43;95981.66;;;11.26;100.00
57763;BME280;43592;42.524;12.052;2023-05-02T02:30:09;95984.34;;;11.26;100.00
57763;BME280;43592;42.524;12.052;2023-05-02T02:32:35;95983.22;;;11.27;100.00
57763;BME280;43592;42.524;12.052;2023-05-02T02:35:01;95984.00;;;11.27;100.00
57763;BME280;43592;42.524;12.052;2023-05-02T02:37:29;95983.91;;;11.23;100.00
57763;BME280;43592;42.524;12.052;2023-05-02T02:40:07;95982.75;;;11.21;100.00
57763;BME280;43592;42.524;12.052;2023-05-02T02:48:10;95989.00;;;11.06;100.00
57763;BME280;43592;42.524;12.052;2023-05-02T02:50:49;95983.94;;;11.00;100.00
57763;BME280;43592;42.524;12.052;2023-05-02T02:53:19;95987.25;;;10.94;100.00
57763;BME280;43592;42.524;12.052;2023-05-02T02:55:54;95988.31;;;10.89;100.00
57763;BME280;43592;42.524;12.052;2023-05-02T03:01:07;95985.47;;;10.78;100.00
57763;BME280;43592;42.524;12.052;2023-05-02T03:03:35;95983.88;;;10.74;100.00
57763;BME280;43592;42.524;12.052;2023-05-02T03:06:02;95988.72;;;10.68;100.00
57763;BME280;43592;42.524;12.052;2023-05-02T03:08:28;95985.16;;;10.61;100.00
57763;BME280;43592;42.524;12.052;2023-05-02T03:11:02;95983.88;;;10.54;100.00
57763;BME280;43592;42.524;12.052;2023-05-02T03:13:28;95984.19;;;10.49;100.00
57763;BME280;43592;42.524;12.052;2023-05-02T03:18:19;95977.84;;;10.38;100.00
57763;BME280;43592;42.524;12.052;2023-05-02T03:20:44;95972.78;;;10.33;100.00
57763;BME280;43592;42.524;12.052;2023-05-02T03:23:10;95982.66;;;10.29;100.00
57763;BME280;43592;42.524;12.052;2023-05-02T03:25:35;95989.44;;;10.26;100.00
57763;BME280;43592;42.524;12.052;2023-05-02T03:28:01;95985.94;;;10.22;100.00
57763;BME280;43592;42.524;12.052;2023-05-02T03:30:26;95979.72;;;10.18;100.00
57763;BME280;43592;42.524;12.052;2023-05-02T03:32:52;95978.97;;;10.18;100.00
57763;BME280;43592;42.524;12.052;2023-05-02T03:35:17;95980.44;;;10.15;100.00
57763;BME280;43592;42.524;12.052;2023-05-02T03:37:43;95984.59;;;10.12;100.00
57763;BME280;43592;42.524;12.052;2023-05-02T03:40:09;95981.84;;;10.09;100.00
57763;BME280;43592;42.524;12.052;2023-05-02T03:42:35;95980.63;;;10.06;100.00
57763;BME280;43592;42.524;12.052;2023-05-02T03:45:08;95984.44;;;10.05;100.00
57763;BME280;43592;42.524;12.052;2023-05-02T03:47:34;95981.69;;;10.02;100.00
57763;BME280;43592;42.524;12.052;2023-05-02T03:49:59;95989.63;;;9.98;100.00
57763;BME280;43592;42.524;12.052;2023-05-02T03:52:26;95986.91;;;9.95;100.00
57763;BME280;43592;42.524;12.052;2023-05-02T03:54:52;95986.47;;;9.93;100.00
57763;BME280;43592;42.524;12.052;2023-05-02T03:57:18;95997.09;;;9.89;100.00
57763;BME280;43592;42.524;12.052;2023-05-02T03:59:43;95988.63;;;9.87;100.00
57763;BME280;43592;42.524;12.052;2023-05-02T04:02:12;96000.91;;;9.88;100.00
57763;BME280;43592;42.524;12.052;2023-05-02T04:04:38;96001.66;;;9.88;100.00
57763;BME280;43592;42.524;12.052;2023-05-02T04:07:04;96000.09;;;9.87;100.00
57763;BME280;43592;42.524;12.052;2023-05-02T04:09:32;96009.59;;;9.85;100.00
57763;BME280;43592;42.524;12.052;2023-05-02T04:11:57;96002.28;;;9.82;100.00
57763;BME280;43592;42.524;12.052;2023-05-02T04:14:23;96018.22;;;9.78;100.00
57763;BME280;43592;42.524;12.052;2023-05-02T04:16:49;96018.16;;;9.75;100.00
57763;BME280;43592;42.524;12.052;2023-05-02T04:19:15;96015.06;;;9.73;100.00
57763;BME280;43592;42.524;12.052;2023-05-02T04:21:41;96024.97;;;9.72;100.00
57763;BME280;43592;42.524;12.052;2023-05-02T04:24:08;96026.94;;;9.75;100.00
57763;BME280;43592;42.524;12.052;2023-05-02T04:26:34;96031.25;;;9.80;100.00
57763;BME280;43592;42.524;12.052;2023-05-02T04:28:59;96029.44;;;9.84;100.00
57763;BME280;43592;42.524;12.052;2023-05-02T04:31:25;96028.72;;;9.87;100.00
57763;BME280;43592;42.524;12.052;2023-05-02T04:33:51;96026.50;;;9.89;100.00
57763;BME280;43592;42.524;12.052;2023-05-02T04:36:17;96030.81;;;9.94;100.00
57763;BME280;43592;42.524;12.052;2023-05-02T04:38:43;96030.88;;;9.97;100.00
57763;BME280;43592;42.524;12.052;2023-05-02T04:41:09;96036.28;;;10.01;100.00
57763;BME280;43592;42.524;12.052;2023-05-02T04:43:35;96039.81;;;10.05;100.00
57763;BME280;43592;42.524;12.052;2023-05-02T04:46:00;96038.69;;;10.06;100.00
57763;BME280;43592;42.524;12.052;2023-05-02T04:48:26;96036.44;;;10.08;100.00
57763;BME280;43592;42.524;12.052;2023-05-02T04:50:51;96043.41;;;10.12;100.00
57763;BME280;43592;42.524;12.052;2023-05-02T04:53:20;96048.47;;;10.18;100.00
57763;BME280;43592;42.524;12.052;2023-05-02T04:55:46;96052.84;;;10.26;100.00
57763;BME280;43592;42.524;12.052;2023-05-02T04:58:11;96044.22;;;10.32;100.00
57763;BME280;43592;42.524;12.052;2023-05-02T05:00:37;96050.94;;;10.42;100.00
57763;BME280;43592;42.524;12.052;2023-05-02T05:03:03;96056.41;;;10.49;100.00
57763;BME280;43592;42.524;12.052;2023-05-02T05:05:28;96056.97;;;10.59;100.00
57763;BME280;43592;42.524;12.052;2023-05-02T05:07:54;96057.88;;;10.66;100.00
57763;BME280;43592;42.524;12.052;2023-05-02T05:10:19;96062.25;;;10.74;100.00
57763;BME280;43592;42.524;12.052;2023-05-02T05:12:45;96067.75;;;10.82;100.00
57763;BME280;43592;42.524;12.052;2023-05-02T05:15:10;96076.66;;;10.89;100.00
57763;BME280;43592;42.524;12.052;2023-05-02T05:17:38;96060.75;;;10.96;100.00
57763;BME280;43592;42.524;12.052;2023-05-02T05:20:04;96072.38;;;11.04;100.00
57763;BME280;43592;42.524;12.052;2023-05-02T05:22:29;96073.25;;;11.12;100.00
57763;BME280;43592;42.524;12.052;2023-05-02T05:24:55;96070.28;;;11.17;100.00
57763;BME280;43592;42.524;12.052;2023-05-02T05:27:21;96080.00;;;11.25;100.00
57763;BME280;43592;42.524;12.052;2023-05-02T05:29:46;96076.25;;;11.30;100.00
57763;BME280;43592;42.524;12.052;2023-05-02T05:32:12;96074.09;;;11.39;100.00
57763;BME280;43592;42.524;12.052;2023-05-02T05:34:38;96075.00;;;11.46;100.00
57763;BME280;43592;42.524;12.052;2023-05-02T05:37:03;96072.84;;;11.56;100.00
57763;BME280;43592;42.524;12.052;2023-05-02T05:39:29;96077.53;;;11.62;100.00
57763;BME280;43592;42.524;12.052;2023-05-02T05:41:54;96078.06;;;11.72;100.00
57763;BME280;43592;42.524;12.052;2023-05-02T05:44:21;96072.44;;;11.80;100.00
57763;BME280;43592;42.524;12.052;2023-05-02T05:46:47;96073.00;;;11.89;100.00
57763;BME280;43592;42.524;12.052;2023-05-02T05:49:14;96069.31;;;11.98;100.00
57763;BME280;43592;42.524;12.052;2023-05-02T05:51:40;96075.59;;;12.09;100.00
57763;BME280;43592;42.524;12.052;2023-05-02T05:54:05;96082.56;;;12.17;100.00
57763;BME280;43592;42.524;12.052;2023-05-02T05:56:31;96082.34;;;12.26;100.00
57763;BME280;43592;42.524;12.052;2023-05-02T05:58:57;96082.84;;;12.35;100.00
57763;BME280;43592;42.524;12.052;2023-05-02T06:01:22;96091.38;;;12.44;100.00
57763;BME280;43592;42.524;12.052;2023-05-02T06:03:48;96089.94;;;12.54;100.00
57763;BME280;43592;42.524;12.052;2023-05-02T06:06:14;96096.22;;;12.65;100.00
57763;BME280;43592;42.524;12.052;2023-05-02T06:08:39;96096.00;;;12.77;100.00
57763;BME280;43592;42.524;12.052;2023-05-02T06:11:08;96086.94;;;12.89;100.00
57763;BME280;43592;42.524;12.052;2023-05-02T06:13:35;96094.00;;;13.04;100.00
57763;BME280;43592;42.524;12.052;2023-05-02T06:16:01;96098.00;;;13.21;100.00
57763;BME280;43592;42.524;12.052;2023-05-02T06:18:27;96090.91;;;13.36;100.00
57763;BME280;43592;42.524;12.052;2023-05-02T06:20:53;96082.97;;;13.51;100.00
57763;BME280;43592;42.524;12.052;2023-05-02T06:23:18;96088.41;;;13.61;100.00
57763;BME280;43592;42.524;12.052;2023-05-02T06:25:44;96077.72;;;13.68;100.00
57763;BME280;43592;42.524;12.052;2023-05-02T06:28:09;96068.16;;;13.75;100.00
57763;BME280;43592;42.524;12.052;2023-05-02T06:30:35;96068.22;;;13.82;100.00
57763;BME280;43592;42.524;12.052;2023-05-02T06:33:02;96059.06;;;13.90;100.00
57763;BME280;43592;42.524;12.052;2023-05-02T06:35:28;96054.81;;;13.92;100.00
57763;BME280;43592;42.524;12.052;2023-05-02T06:37:53;96047.56;;;13.93;100.00
57763;BME280;43592;42.524;12.052;2023-05-02T06:40:19;96059.09;;;13.97;100.00
57763;BME280;43592;42.524;12.052;2023-05-02T06:42:45;96053.34;;;13.99;100.00
57763;BME280;43592;42.524;12.052;2023-05-02T06:45:10;96063.72;;;14.00;100.00
57763;BME280;43592;42.524;12.052;2023-05-02T06:47:36;96065.66;;;14.03;100.00
57763;BME280;43592;42.524;12.052;2023-05-02T06:50:01;96063.38;;;14.05;100.00
57763;BME280;43592;42.524;12.052;2023-05-02T06:52:27;96063.03;;;14.14;100.00
57763;BME280;43592;42.524;12.052;2023-05-02T06:54:53;96062.34;;;14.24;100.00
57763;BME280;43592;42.524;12.052;2023-05-02T06:57:18;96062.78;;;14.33;100.00
57763;BME280;43592;42.524;12.052;2023-05-02T06:59:44;96054.75;;;14.44;100.00
57763;BME280;43592;42.524;12.052;2023-05-02T07:02:09;96058.66;;;14.54;100.00
57763;BME280;43592;42.524;12.052;2023-05-02T07:04:35;96056.00;;;14.65;100.00
57763;BME280;43592;42.524;12.052;2023-05-02T07:07:01;96055.63;;;14.66;100.00
57763;BME280;43592;42.524;12.052;2023-05-02T07:09:26;96053.31;;;14.65;100.00
57763;BME280;43592;42.524;12.052;2023-05-02T07:11:52;96050.63;;;14.65;100.00
57763;BME280;43592;42.524;12.052;2023-05-02T07:14:17;96063.34;;;14.71;100.00
57763;BME280;43592;42.524;12.052;2023-05-02T07:16:43;96059.50;;;14.76;100.00
57763;BME280;43592;42.524;12.052;2023-05-02T07:19:08;96061.44;;;14.79;100.00
57763;BME280;43592;42.524;12.052;2023-05-02T07:21:34;96060.69;;;14.78;100.00
57763;BME280;43592;42.524;12.052;2023-05-02T07:23:59;96062.59;;;14.78;100.00
57763;BME280;43592;42.524;12.052;2023-05-02T07:26:25;96062.59;;;14.81;100.00
57763;BME280;43592;42.524;12.052;2023-05-02T07:28:52;96073.38;;;14.85;100.00
57763;BME280;43592;42.524;12.052;2023-05-02T07:31:17;96070.34;;;14.90;100.00
57763;BME280;43592;42.524;12.052;2023-05-02T07:33:43;96068.03;;;15.03;100.00
57763;BME280;43592;42.524;12.052;2023-05-02T07:36:08;96066.94;;;15.15;100.00
57763;BME280;43592;42.524;12.052;2023-05-02T07:38:34;96066.56;;;15.23;100.00
57763;BME280;43592;42.524;12.052;2023-05-02T07:41:00;96074.66;;;15.27;100.00
57763;BME280;43592;42.524;12.052;2023-05-02T07:43:25;96064.66;;;15.38;100.00
57763;BME280;43592;42.524;12.052;2023-05-02T07:45:52;96070.81;;;15.49;100.00
57763;BME280;43592;42.524;12.052;2023-05-02T07:48:17;96068.88;;;15.50;100.00
57763;BME280;43592;42.524;12.052;2023-05-02T07:50:43;96071.59;;;15.50;100.00
57763;BME280;43592;42.524;12.052;2023-05-02T07:53:08;96076.19;;;15.57;100.00
57763;BME280;43592;42.524;12.052;2023-05-02T07:55:35;96079.28;;;15.62;100.00
57763;BME280;43592;42.524;12.052;2023-05-02T07:58:00;96081.59;;;15.67;100.00
57763;BME280;43592;42.524;12.052;2023-05-02T08:00:26;96092.03;;;15.65;100.00
57763;BME280;43592;42.524;12.052;2023-05-02T08:02:51;96089.69;;;15.57;100.00
57763;BME280;43592;42.524;12.052;2023-05-02T08:05:17;96091.22;;;15.47;100.00
57763;BME280;43592;42.524;12.052;2023-05-02T08:07:42;96092.75;;;15.44;100.00
57763;BME280;43592;42.524;12.052;2023-05-02T08:10:08;96088.16;;;15.48;100.00
57763;BME280;43592;42.524;12.052;2023-05-02T08:12:40;96095.47;;;15.62;100.00
57763;BME280;43592;42.524;12.052;2023-05-02T08:15:07;96095.91;;;15.89;100.00
57763;BME280;43592;42.524;12.052;2023-05-02T08:17:32;96092.38;;;16.25;100.00
57763;BME280;43592;42.524;12.052;2023-05-02T08:19:58;96096.16;;;16.52;100.00
57763;BME280;43592;42.524;12.052;2023-05-02T08:22:23;96115.41;;;16.72;100.00
57763;BME280;43592;42.524;12.052;2023-05-02T08:24:49;96111.09;;;16.93;100.00
57763;BME280;43592;42.524;12.052;2023-05-02T08:27:14;96106.41;;;17.04;100.00
57763;BME280;43592;42.524;12.052;2023-05-02T08:29:40;96114.16;;;17.02;100.00
57763;BME280;43592;42.524;12.052;2023-05-02T08:32:05;96112.25;;;16.95;100.00
57763;BME280;43592;42.524;12.052;2023-05-02T08:34:31;96108.78;;;16.95;100.00
57763;BME280;43592;42.524;12.052;2023-05-02T08:36:58;96117.66;;;16.95;100.00
57763;BME280;43592;42.524;12.052;2023-05-02T08:39:23;96115.59;;;17.21;100.00
57763;BME280;43592;42.524;12.052;2023-05-02T08:41:49;96118.50;;;17.55;100.00
57763;BME280;43592;42.524;12.052;2023-05-02T08:44:14;96123.66;;;17.91;100.00
57763;BME280;43592;42.524;12.052;2023-05-02T08:46:40;96119.09;;;18.26;100.00
57763;BME280;43592;42.524;12.052;2023-05-02T08:49:09;96127.56;;;18.69;100.00
57763;BME280;43592;42.524;12.052;2023-05-02T08:51:35;96125.50;;;19.15;100.00
57763;BME280;43592;42.524;12.052;2023-05-02T08:54:02;96116.72;;;19.61;100.00
57763;BME280;43592;42.524;12.052;2023-05-02T08:56:28;96127.00;;;20.01;100.00
57763;BME280;43592;42.524;12.052;2023-05-02T08:58:53;96126.19;;;20.27;100.00
57763;BME280;43592;42.524;12.052;2023-05-02T09:01:21;96118.47;;;20.46;100.00
57763;BME280;43592;42.524;12.052;2023-05-02T09:03:47;96131.88;;;20.56;100.00
57763;BME280;43592;42.524;12.052;2023-05-02T09:06:14;96127.50;;;20.62;94.32
57763;BME280;43592;42.524;12.052;2023-05-02T09:08:40;96131.13;;;20.56;96.41
57763;BME280;43592;42.524;12.052;2023-05-02T09:11:07;96135.94;;;20.68;97.43
57763;BME280;43592;42.524;12.052;2023-05-02T09:13:34;96132.47;;;20.68;98.78
57763;BME280;43592;42.524;12.052;2023-05-02T09:16:04;96136.66;;;20.92;97.18
57763;BME280;43592;42.524;12.052;2023-05-02T09:18:32;96131.38;;;21.21;99.38
57763;BME280;43592;42.524;12.052;2023-05-02T09:20:58;96136.91;;;21.18;94.91
57763;BME280;43592;42.524;12.052;2023-05-02T09:23:31;96141.53;;;21.01;92.68
57763;BME280;43592;42.524;12.052;2023-05-02T09:25:57;96140.06;;;20.96;93.08
57763;BME280;43592;42.524;12.052;2023-05-02T09:28:43;96144.25;;;21.01;93.45
57763;BME280;43592;42.524;12.052;2023-05-02T09:31:09;96151.34;;;21.15;88.63
57763;BME280;43592;42.524;12.052;2023-05-02T09:33:35;96148.41;;;21.05;95.08
57763;BME280;43592;42.524;12.052;2023-05-02T09:36:01;96144.25;;;20.81;92.34
57763;BME280;43592;42.524;12.052;2023-05-02T09:38:26;96160.94;;;20.59;96.90
57763;BME280;43592;42.524;12.052;2023-05-02T09:40:55;96144.34;;;20.30;100.00
57763;BME280;43592;42.524;12.052;2023-05-02T09:43:20;96151.69;;;20.10;100.00
57763;BME280;43592;42.524;12.052;2023-05-02T09:45:55;96151.09;;;19.99;100.00
57763;BME280;43592;42.524;12.052;2023-05-02T09:48:21;96151.03;;;19.75;100.00
57763;BME280;43592;42.524;12.052;2023-05-02T09:50:47;96149.47;;;19.47;100.00
57763;BME280;43592;42.524;12.052;2023-05-02T09:53:12;96156.03;;;19.22;100.00
57763;BME280;43592;42.524;12.052;2023-05-02T09:55:38;96155.91;;;18.99;100.00
57763;BME280;43592;42.524;12.052;2023-05-02T09:58:03;96160.03;;;18.76;100.00
57763;BME280;43592;42.524;12.052;2023-05-02T10:00:43;96153.63;;;18.56;100.00
57763;BME280;43592;42.524;12.052;2023-05-02T10:03:09;96153.06;;;18.34;100.00
57763;BME280;43592;42.524;12.052;2023-05-02T10:05:35;96156.34;;;18.14;100.00
57763;BME280;43592;42.524;12.052;2023-05-02T10:08:05;96150.63;;;18.05;100.00
57763;BME280;43592;42.524;12.052;2023-05-02T10:10:32;96147.94;;;18.02;100.00
57763;BME280;43592;42.524;12.052;2023-05-02T10:12:59;96150.28;;;18.00;100.00
57763;BME280;43592;42.524;12.052;2023-05-02T10:15:25;96153.38;;;17.98;100.00
57763;BME280;43592;42.524;12.052;2023-05-02T10:17:55;96155.72;;;17.96;100.00
57763;BME280;43592;42.524;12.052;2023-05-02T10:20:23;96152.56;;;18.05;100.00
57763;BME280;43592;42.524;12.052;2023-05-02T10:22:51;96148.84;;;18.33;100.00
57763;BME280;43592;42.524;12.052;2023-05-02T10:25:17;96148.44;;;18.72;100.00
57763;BME280;43592;42.524;12.052;2023-05-02T10:27:43;96150.53;;;18.95;100.00
57763;BME280;43592;42.524;12.052;2023-05-02T10:30:09;96150.31;;;19.13;100.00
57763;BME280;43592;42.524;12.052;2023-05-02T10:32:37;96154.06;;;19.23;100.00
57763;BME280;43592;42.524;12.052;2023-05-02T10:35:03;96159.38;;;19.34;100.00
57763;BME280;43592;42.524;12.052;2023-05-02T10:37:29;96152.97;;;19.47;100.00
57763;BME280;43592;42.524;12.052;2023-05-02T10:39:59;96150.06;;;19.62;100.00
57763;BME280;43592;42.524;12.052;2023-05-02T10:42:25;96141.31;;;19.78;100.00
57763;BME280;43592;42.524;12.052;2023-05-02T10:44:50;96154.66;;;19.92;100.00
57763;BME280;43592;42.524;12.052;2023-05-02T10:47:20;96154.44;;;20.06;100.00
57763;BME280;43592;42.524;12.052;2023-05-02T10:49:49;96148.25;;;20.29;94.92
57763;BME280;43592;42.524;12.052;2023-05-02T10:55:19;96144.75;;;20.52;99.82
57763;BME280;43592;42.524;12.052;2023-05-02T11:00:29;96148.47;;;20.62;98.91
57763;BME280;43592;42.524;12.052;2023-05-02T11:02:56;96144.34;;;20.54;95.42
57763;BME280;43592;42.524;12.052;2023-05-02T11:05:22;96144.19;;;20.41;100.00
57763;BME280;43592;42.524;12.052;2023-05-02T11:07:48;96148.19;;;20.33;100.00
57763;BME280;43592;42.524;12.052;2023-05-02T11:12:48;96145.06;;;20.34;100.00
57763;BME280;43592;42.524;12.052;2023-05-02T11:17:58;96151.13;;;20.42;100.00
57763;BME280;43592;42.524;12.052;2023-05-02T11:20:25;96146.06;;;20.88;100.00
57763;BME280;43592;42.524;12.052;2023-05-02T11:22:51;96144.69;;;21.36;93.51
57763;BME280;43592;42.524;12.052;2023-05-02T11:25:29;96148.22;;;22.05;94.67
57763;BME280;43592;42.524;12.052;2023-05-02T11:27:55;96144.81;;;22.34;97.16
57763;BME280;43592;42.524;12.052;2023-05-02T11:30:43;96146.16;;;22.42;98.81
57763;BME280;43592;42.524;12.052;2023-05-02T11:35:34;96149.06;;;21.86;95.28
57763;BME280;43592;42.524;12.052;2023-05-02T11:40:28;96151.28;;;21.38;96.70
57763;BME280;43592;42.524;12.052;2023-05-02T11:42:55;96146.81;;;21.08;93.67
57763;BME280;43592;42.524;12.052;2023-05-02T11:45:20;96144.47;;;20.90;98.39
57763;BME280;43592;42.524;12.052;2023-05-02T11:47:48;96140.47;;;20.75;90.17
57763;BME280;43592;42.524;12.052;2023-05-02T11:50:15;96142.84;;;20.53;98.17
57763;BME280;43592;42.524;12.052;2023-05-02T11:52:41;96136.53;;;20.32;97.05
57763;BME280;43592;42.524;12.052;2023-05-02T11:55:09;96128.25;;;20.19;100.00
57763;BME280;43592;42.524;12.052;2023-05-02T11:57:35;96138.16;;;20.06;100.00
57763;BME280;43592;42.524;12.052;2023-05-02T12:00:01;96128.72;;;19.91;87.77
57763;BME280;43592;42.524;12.052;2023-05-02T12:02:40;96133.63;;;19.72;96.46
57763;BME280;43592;42.524;12.052;2023-05-02T12:05:07;96131.81;;;19.66;92.46
57763;BME280;43592;42.524;12.052;2023-05-02T12:07:44;96131.28;;;19.74;90.96
57763;BME280;43592;42.524;12.052;2023-05-02T12:10:10;96132.78;;;20.26;92.34
57763;BME280;43592;42.524;12.052;2023-05-02T12:12:36;96133.78;;;20.79;89.07
57763;BME280;43592;42.524;12.052;2023-05-02T12:15:10;96131.56;;;21.50;87.90
57763;BME280;43592;42.524;12.052;2023-05-02T12:17:36;96141.22;;;21.88;85.40
57763;BME280;43592;42.524;12.052;2023-05-02T12:20:04;96147.25;;;21.95;86.19
57763;BME280;43592;42.524;12.052;2023-05-02T12:22:30;96146.94;;;21.77;90.94
57763;BME280;43592;42.524;12.052;2023-05-02T12:24:56;96147.22;;;21.46;96.54
57763;BME280;43592;42.524;12.052;2023-05-02T12:27:22;96137.81;;;21.11;91.20
57763;BME280;43592;42.524;12.052;2023-05-02T12:29:47;96142.28;;;20.81;95.56
57763;BME280;43592;42.524;12.052;2023-05-02T12:32:14;96142.00;;;20.56;99.79
57763;BME280;43592;42.524;12.052;2023-05-02T12:34:41;96141.31;;;20.48;94.76
57763;BME280;43592;42.524;12.052;2023-05-02T12:37:07;96151.59;;;20.60;100.00
57763;BME280;43592;42.524;12.052;2023-05-02T12:39:33;96143.34;;;20.88;100.00
57763;BME280;43592;42.524;12.052;2023-05-02T12:41:59;96144.69;;;21.56;100.00
57763;BME280;43592;42.524;12.052;2023-05-02T12:47:22;96132.69;;;22.51;73.39
57763;BME280;43592;42.524;12.052;2023-05-02T12:49:52;96131.03;;;22.99;76.25
57763;BME280;43592;42.524;12.052;2023-05-02T12:52:18;96132.84;;;23.44;78.24
57763;BME280;43592;42.524;12.052;2023-05-02T12:54:44;96128.91;;;23.96;81.02
57763;BME280;43592;42.524;12.052;2023-05-02T12:57:19;96117.06;;;24.60;74.12
57763;BME280;43592;42.524;12.052;2023-05-02T12:59:50;96124.97;;;25.24;75.90
57763;BME280;43592;42.524;12.052;2023-05-02T13:02:15;96125.00;;;25.33;78.93
57763;BME280;43592;42.524;12.052;2023-05-02T13:04:41;96130.56;;;25.20;88.15
57763;BME280;43592;42.524;12.052;2023-05-02T13:07:06;96122.66;;;24.78;85.82
57763;BME280;43592;42.524;12.052;2023-05-02T13:09:32;96118.13;;;24.28;80.52
57763;BME280;43592;42.524;12.052;2023-05-02T13:11:58;96119.13;;;24.21;77.71